createdAt,value
2023-12-01T00:01:41.739Z,85.20
2023-12-01T00:04:08.553Z,85.00
2023-12-01T00:06:35.437Z,85.00
2023-12-01T00:09:02.230Z,84.90
2023-12-01T00:11:29.029Z,85.00
2023-12-01T00:13:56.010Z,85.00
2023-12-01T00:16:22.739Z,85.00
2023-12-01T00:18:49.490Z,84.90
2023-12-01T00:21:16.597Z,84.90
2023-12-01T00:23:43.287Z,84.90
2023-12-01T00:26:09.982Z,84.90
2023-12-01T00:28:36.700Z,85.00
2023-12-01T00:31:03.546Z,84.80
2023-12-01T00:33:30.291Z,84.90
2023-12-01T00:35:57.010Z,84.70
2023-12-01T00:38:23.716Z,84.80
2023-12-01T00:40:51.419Z,85.10
2023-12-01T00:43:18.304Z,86.90
2023-12-01T00:45:45.149Z,87.40
2023-12-01T00:48:11.899Z,87.10
2023-12-01T00:50:40.659Z,86.70
2023-12-01T00:53:07.408Z,86.60
2023-12-01T00:55:34.074Z,86.40
2023-12-01T00:58:00.849Z,86.20
2023-12-01T01:00:27.547Z,86.10
2023-12-01T01:02:54.368Z,85.90
2023-12-01T01:05:21.288Z,85.70
2023-12-01T01:07:47.963Z,86.30
2023-12-01T01:10:14.845Z,85.90
2023-12-01T01:12:41.692Z,85.70
2023-12-01T01:15:08.835Z,85.60
2023-12-01T01:17:35.635Z,85.60
2023-12-01T01:20:03.348Z,85.30
2023-12-01T01:22:30.074Z,85.10
2023-12-01T01:24:57.010Z,84.80
2023-12-01T01:27:23.764Z,84.70
2023-12-01T01:29:50.449Z,84.70
2023-12-01T01:32:17.150Z,84.50
2023-12-01T01:34:44.028Z,84.30
2023-12-01T01:37:10.839Z,84.40
2023-12-01T01:39:37.671Z,84.50
2023-12-01T01:42:04.812Z,84.50
2023-12-01T01:44:31.506Z,84.50
2023-12-01T01:46:58.767Z,84.50
2023-12-01T01:49:28.859Z,84.40
2023-12-01T01:51:56.095Z,84.40
2023-12-01T01:54:26.639Z,84.30
2023-12-01T01:56:53.819Z,84.30
2023-12-01T01:59:22.292Z,84.20
2023-12-01T02:01:49.821Z,84.20
2023-12-01T02:04:17.600Z,84.00
2023-12-01T02:06:47.928Z,83.90
2023-12-01T02:09:14.778Z,83.80
2023-12-01T02:11:42.426Z,83.70
2023-12-01T02:14:09.481Z,83.50
2023-12-01T02:16:36.542Z,83.50
2023-12-01T02:19:03.739Z,83.50
2023-12-01T02:21:37.049Z,83.30
2023-12-01T02:24:04.508Z,83.20
2023-12-01T02:26:31.243Z,83.30
2023-12-01T02:28:57.967Z,83.20
2023-12-01T02:31:24.731Z,83.30
2023-12-01T02:33:55.044Z,83.30
2023-12-01T02:36:21.839Z,83.30
2023-12-01T02:38:48.674Z,83.50
2023-12-01T02:41:17.083Z,83.30
2023-12-01T02:43:44.306Z,83.20
2023-12-01T02:46:14.487Z,83.30
2023-12-01T02:48:41.787Z,83.10
2023-12-01T02:51:09.142Z,83.00
2023-12-01T02:53:36.009Z,82.90
2023-12-01T02:56:03.048Z,82.90
2023-12-01T02:58:29.734Z,82.90
2023-12-01T03:00:56.469Z,82.70
2023-12-01T03:03:23.319Z,82.80
2023-12-01T03:05:50.131Z,82.70
2023-12-01T03:08:16.834Z,82.60
2023-12-01T03:10:43.545Z,82.60
2023-12-01T03:13:10.240Z,82.60
2023-12-01T03:15:37.054Z,82.60
2023-12-01T03:18:04.765Z,82.60
2023-12-01T03:20:31.481Z,82.60
2023-12-01T03:22:58.357Z,82.50
2023-12-01T03:25:25.126Z,82.60
2023-12-01T03:27:52.047Z,82.60
2023-12-01T03:30:20.338Z,82.50
2023-12-01T03:32:50.505Z,82.50
2023-12-01T03:35:19.390Z,82.50
2023-12-01T03:37:46.606Z,82.50
2023-12-01T03:40:14.889Z,82.50
2023-12-01T03:42:51.724Z,82.40
2023-12-01T03:45:18.821Z,82.50
2023-12-01T03:47:50.624Z,82.50
2023-12-01T03:50:19.819Z,82.50
2023-12-01T03:52:48.771Z,82.40
2023-12-01T03:55:15.970Z,82.50
2023-12-01T03:57:44.141Z,82.60
2023-12-01T04:00:17.426Z,82.50
2023-12-01T04:02:45.978Z,82.50
2023-12-01T04:05:21.616Z,82.40
2023-12-01T04:07:51.971Z,82.30
2023-12-01T04:10:19.939Z,82.30
2023-12-01T04:12:47.355Z,82.30
2023-12-01T04:15:14.356Z,82.40
2023-12-01T04:17:43.611Z,82.30
2023-12-01T04:20:28.831Z,82.20
2023-12-01T04:22:59.269Z,82.00
2023-12-01T04:25:26.983Z,82.30
2023-12-01T04:27:54.599Z,82.30
2023-12-01T04:30:22.287Z,82.20
2023-12-01T04:32:54.976Z,82.00
2023-12-01T04:35:23.246Z,82.10
2023-12-01T04:37:50.394Z,82.10
2023-12-01T04:40:17.360Z,82.20
2023-12-01T04:42:53.117Z,81.90
2023-12-01T04:45:22.366Z,82.00
2023-12-01T04:47:52.083Z,81.90
2023-12-01T04:50:20.909Z,81.90
2023-12-01T04:52:54.285Z,82.10
2023-12-01T04:55:23.939Z,82.20
2023-12-01T04:57:50.834Z,81.80
2023-12-01T05:00:20.790Z,81.80
2023-12-01T05:02:53.059Z,81.80
2023-12-01T05:05:30.988Z,81.80
2023-12-01T05:08:00.764Z,81.80
2023-12-01T05:10:33.060Z,81.80
2023-12-01T05:13:02.245Z,81.80
2023-12-01T05:15:31.574Z,81.70
2023-12-01T05:18:03.138Z,81.70
2023-12-01T05:20:30.279Z,81.80
2023-12-01T05:23:02.051Z,81.80
2023-12-01T05:25:34.300Z,81.60
2023-12-01T05:28:03.252Z,81.50
2023-12-01T05:30:32.557Z,81.70
2023-12-01T05:32:59.784Z,81.70
2023-12-01T05:35:27.436Z,81.60
2023-12-01T05:37:56.206Z,81.60
2023-12-01T05:40:30.764Z,81.40
2023-12-01T05:42:59.729Z,81.50
2023-12-01T05:45:29.041Z,81.60
2023-12-01T05:47:57.547Z,81.50
2023-12-01T05:50:31.828Z,81.70
2023-12-01T05:53:04.782Z,81.60
2023-12-01T05:55:36.816Z,81.40
2023-12-01T05:58:11.865Z,81.60
2023-12-01T06:00:39.824Z,81.60
2023-12-01T06:03:11.316Z,81.50
2023-12-01T06:05:39.296Z,81.40
2023-12-01T06:08:07.003Z,81.30
2023-12-01T06:10:34.613Z,81.30
2023-12-01T06:13:01.863Z,81.90
2023-12-01T06:15:32.045Z,81.90
2023-12-01T06:18:00.390Z,81.90
2023-12-01T06:20:27.986Z,81.70
2023-12-01T06:23:01.148Z,81.80
2023-12-01T06:25:33.085Z,81.70
2023-12-01T06:28:02.745Z,81.80
2023-12-01T06:30:34.930Z,81.70
2023-12-01T06:44:46.845Z,81.70
2023-12-01T06:47:14.296Z,81.50
2023-12-01T06:49:41.888Z,81.50
2023-12-01T06:52:09.666Z,81.60
2023-12-01T06:54:36.818Z,81.70
2023-12-01T06:57:03.952Z,81.80
2023-12-01T06:59:31.117Z,81.70
2023-12-01T07:01:58.106Z,81.70
2023-12-01T07:04:25.900Z,81.60
2023-12-01T07:06:53.042Z,81.70
2023-12-01T07:09:20.021Z,81.70
2023-12-01T07:11:47.617Z,81.70
2023-12-01T07:14:14.636Z,81.40
2023-12-01T07:16:43.457Z,81.60
2023-12-01T07:19:11.418Z,81.30
2023-12-01T07:21:40.837Z,81.30
2023-12-01T07:24:09.430Z,81.30
2023-12-01T07:26:36.381Z,81.50
2023-12-01T07:29:05.777Z,81.50
2023-12-01T07:31:34.965Z,81.80
2023-12-01T07:34:02.609Z,81.90
2023-12-01T07:36:38.021Z,81.60
2023-12-01T07:39:10.552Z,81.60
2023-12-01T07:41:37.720Z,81.80
2023-12-01T07:44:05.109Z,81.90
2023-12-01T07:46:33.608Z,81.90
2023-12-01T07:49:08.964Z,82.00
2023-12-01T07:51:37.128Z,82.20
2023-12-01T07:54:04.107Z,82.20
2023-12-01T07:56:31.076Z,82.40
2023-12-01T07:58:58.072Z,82.50
2023-12-01T08:01:25.472Z,82.50
2023-12-01T08:03:52.615Z,82.90
2023-12-01T08:06:19.728Z,83.20
2023-12-01T08:08:46.764Z,83.10
2023-12-01T08:11:13.686Z,82.90
2023-12-01T08:13:40.622Z,82.70
2023-12-01T08:16:08.192Z,82.70
2023-12-01T08:18:35.371Z,82.60
2023-12-01T08:21:02.410Z,82.50
2023-12-01T08:23:29.481Z,84.50
2023-12-01T08:25:56.766Z,84.20
2023-12-01T08:28:24.075Z,84.10
2023-12-01T08:30:51.012Z,83.00
2023-12-01T08:33:18.144Z,82.60
2023-12-01T08:35:45.185Z,83.10
2023-12-01T08:38:12.164Z,83.60
2023-12-01T08:40:43.440Z,83.30
2023-12-01T08:43:11.413Z,83.00
2023-12-01T08:45:38.388Z,82.90
2023-12-01T08:48:05.609Z,82.70
2023-12-01T08:50:32.580Z,82.70
2023-12-01T08:52:59.546Z,82.70
2023-12-01T08:55:26.477Z,82.70
2023-12-01T08:57:53.413Z,82.70
2023-12-01T09:00:23.259Z,82.60
2023-12-01T09:02:51.974Z,82.70
2023-12-01T09:05:19.476Z,82.60
2023-12-01T09:07:50.571Z,82.70
2023-12-01T09:10:21.343Z,82.60
2023-12-01T09:12:49.860Z,82.50
2023-12-01T09:15:17.117Z,82.40
2023-12-01T09:17:44.176Z,82.40
2023-12-01T09:20:11.937Z,82.40
2023-12-01T09:22:39.018Z,82.50
2023-12-01T09:25:07.928Z,82.40
2023-12-01T09:27:38.651Z,82.40
2023-12-01T09:30:09.152Z,82.50
2023-12-01T09:32:36.154Z,82.50
2023-12-01T09:35:04.174Z,82.70
2023-12-01T09:37:31.107Z,82.90
2023-12-01T09:39:58.260Z,82.70
2023-12-01T09:42:26.226Z,82.60
2023-12-01T09:44:57.350Z,82.60
2023-12-01T09:47:26.325Z,82.50
2023-12-01T09:49:53.688Z,82.40
2023-12-01T09:52:20.613Z,82.30
2023-12-01T09:55:07.011Z,82.50
2023-12-01T09:57:34.751Z,82.40
2023-12-01T10:00:04.798Z,82.30
2023-12-01T10:02:34.109Z,82.30
2023-12-01T10:05:22.147Z,82.30
2023-12-01T10:07:52.366Z,82.30
2023-12-01T10:10:26.389Z,82.40
2023-12-01T10:12:57.774Z,82.30
2023-12-01T10:15:26.590Z,82.30
2023-12-01T10:18:16.214Z,82.40
2023-12-01T10:21:05.404Z,82.30
2023-12-01T10:23:35.254Z,82.40
2023-12-01T10:26:05.924Z,82.60
2023-12-01T10:28:42.248Z,83.20
2023-12-01T10:31:09.350Z,83.90
2023-12-01T10:33:36.988Z,83.20
2023-12-01T10:36:09.093Z,82.90
2023-12-01T10:38:40.076Z,83.00
2023-12-01T10:41:07.344Z,83.10
2023-12-01T10:43:35.539Z,82.90
2023-12-01T10:46:04.820Z,82.80
2023-12-01T10:48:35.170Z,82.70
2023-12-01T10:51:07.675Z,82.70
2023-12-01T10:53:36.443Z,82.70
2023-12-01T10:56:06.012Z,82.70
2023-12-01T10:58:37.540Z,82.70
2023-12-01T11:01:05.558Z,82.70
2023-12-01T11:03:33.926Z,82.70
2023-12-01T11:06:08.345Z,82.90
2023-12-01T11:09:00.624Z,82.70
2023-12-01T11:11:39.910Z,82.70
2023-12-01T11:14:06.876Z,82.80
2023-12-01T11:16:34.647Z,82.80
2023-12-01T11:19:01.706Z,82.70
2023-12-01T11:21:30.651Z,82.60
2023-12-01T11:24:34.077Z,82.50
2023-12-01T11:27:05.817Z,82.80
2023-12-01T11:29:38.543Z,82.70
2023-12-01T11:32:06.040Z,82.70
2023-12-01T11:34:34.334Z,82.70
2023-12-01T11:37:04.108Z,82.60
2023-12-01T11:39:31.527Z,82.60
2023-12-01T11:41:58.674Z,82.60
2023-12-01T11:44:39.121Z,82.60
2023-12-01T11:47:10.225Z,82.50
2023-12-01T11:49:42.136Z,82.70
2023-12-01T11:52:22.387Z,82.70
2023-12-01T11:54:51.058Z,82.60
2023-12-01T11:57:20.424Z,82.60
2023-12-01T11:59:51.356Z,82.50
2023-12-01T12:02:30.514Z,82.50
2023-12-01T12:05:02.832Z,82.50
2023-12-01T12:07:30.229Z,82.60
2023-12-01T12:09:58.310Z,83.00
2023-12-01T12:12:25.395Z,83.10
2023-12-01T12:14:56.904Z,83.00
2023-12-01T12:17:24.009Z,83.20
2023-12-01T12:19:58.046Z,83.10
2023-12-01T12:22:28.990Z,83.00
2023-12-01T12:24:56.541Z,82.70
2023-12-01T12:27:23.606Z,82.70
2023-12-01T12:29:53.423Z,82.70
2023-12-01T12:32:21.020Z,82.70
2023-12-01T12:34:48.129Z,82.70
2023-12-01T12:37:15.379Z,82.60
2023-12-01T12:39:46.010Z,82.60
2023-12-01T12:42:16.970Z,82.60
2023-12-01T12:44:47.595Z,82.60
2023-12-01T12:47:16.239Z,82.70
2023-12-01T12:49:44.853Z,82.50
2023-12-01T12:52:12.766Z,82.60
2023-12-01T12:54:42.499Z,82.60
2023-12-01T12:57:09.532Z,82.40
2023-12-01T12:59:36.503Z,82.50
2023-12-01T13:02:04.020Z,82.90
2023-12-01T13:04:31.043Z,83.20
2023-12-01T13:06:57.946Z,82.80
2023-12-01T13:09:24.903Z,83.00
2023-12-01T13:11:52.344Z,82.90
2023-12-01T13:14:20.046Z,82.70
2023-12-01T13:16:54.310Z,82.60
2023-12-01T13:19:24.650Z,82.60
2023-12-01T13:21:55.461Z,82.90
2023-12-01T13:24:23.753Z,82.50
2023-12-01T13:26:51.497Z,82.80
2023-12-01T13:29:19.236Z,82.60
2023-12-01T13:31:46.455Z,82.60
2023-12-01T13:34:13.606Z,82.60
2023-12-01T13:36:40.556Z,82.50
2023-12-01T13:39:07.574Z,82.60
2023-12-01T13:41:34.626Z,82.70
2023-12-01T13:44:01.576Z,82.60
2023-12-01T13:46:28.676Z,82.70
2023-12-01T13:48:55.742Z,82.60
2023-12-01T13:51:22.680Z,82.60
2023-12-01T13:53:50.653Z,82.60
2023-12-01T13:56:17.789Z,82.50
2023-12-01T13:58:46.598Z,82.50
2023-12-01T14:01:16.755Z,82.50
2023-12-01T14:03:44.222Z,82.50
2023-12-01T14:06:11.606Z,82.50
2023-12-01T14:08:38.589Z,82.60
2023-12-01T14:11:05.843Z,82.50
2023-12-01T14:13:33.238Z,82.60
2023-12-01T14:16:01.869Z,82.50
2023-12-01T14:18:30.710Z,82.60
2023-12-01T14:20:57.751Z,82.70
2023-12-01T14:23:24.696Z,82.90
2023-12-01T14:25:51.680Z,83.20
2023-12-01T14:28:18.777Z,83.40
2023-12-01T14:30:45.731Z,83.30
2023-12-01T14:33:13.200Z,83.10
2023-12-01T14:35:40.166Z,83.10
2023-12-01T14:38:07.160Z,82.70
2023-12-01T14:40:34.765Z,82.70
2023-12-01T14:43:02.605Z,82.60
2023-12-01T14:45:29.599Z,82.60
2023-12-01T14:47:56.695Z,82.50
2023-12-01T14:50:23.780Z,82.70
2023-12-01T14:52:50.698Z,82.50
2023-12-01T14:55:17.803Z,82.60
2023-12-01T14:57:45.087Z,82.50
2023-12-01T15:00:13.691Z,82.50
2023-12-01T15:02:40.729Z,82.50
2023-12-01T15:05:08.176Z,82.60
2023-12-01T15:07:35.906Z,82.50
2023-12-01T15:10:02.961Z,82.50
2023-12-01T15:12:29.978Z,82.50
2023-12-01T15:14:56.938Z,82.50
2023-12-01T15:17:24.032Z,82.60
2023-12-01T15:19:51.657Z,82.50
2023-12-01T15:22:19.330Z,82.60
2023-12-01T15:24:46.550Z,82.50
2023-12-01T15:27:13.596Z,82.90
2023-12-01T15:29:40.719Z,83.20
2023-12-01T15:32:07.821Z,82.80
2023-12-01T15:34:34.872Z,82.60
2023-12-01T15:37:01.915Z,82.70
2023-12-01T15:39:28.904Z,82.90
2023-12-01T15:41:55.957Z,82.80
2023-12-01T15:44:22.940Z,83.20
2023-12-01T15:46:49.893Z,83.70
2023-12-01T15:49:17.032Z,83.50
2023-12-01T15:51:44.050Z,83.60
2023-12-01T15:54:10.998Z,83.40
2023-12-01T15:56:37.971Z,83.10
2023-12-01T15:59:04.906Z,83.50
2023-12-01T16:01:31.910Z,83.20
2023-12-01T16:03:59.939Z,83.20
2023-12-01T16:06:26.918Z,83.30
2023-12-01T16:08:53.964Z,83.30
2023-12-01T16:11:21.268Z,83.10
2023-12-01T16:13:48.409Z,83.10
2023-12-01T16:16:15.543Z,83.10
2023-12-01T16:18:42.691Z,83.10
2023-12-01T16:21:22.888Z,83.10
2023-12-01T16:23:50.008Z,83.10
2023-12-01T16:26:17.009Z,83.00
2023-12-01T16:28:44.042Z,82.80
2023-12-01T16:31:11.328Z,82.90
2023-12-01T16:33:39.277Z,82.90
2023-12-01T16:36:30.234Z,82.70
2023-12-01T16:38:54.806Z,82.90
2023-12-01T16:41:22.713Z,82.70
2023-12-01T16:43:49.643Z,82.80
2023-12-01T16:46:16.596Z,83.00
2023-12-01T16:48:43.641Z,82.70
2023-12-01T16:51:10.869Z,82.70
2023-12-01T16:53:37.939Z,82.60
2023-12-01T16:56:05.189Z,82.70
2023-12-01T16:58:32.351Z,82.60
2023-12-01T17:00:59.419Z,82.60
2023-12-01T17:03:26.642Z,82.50
2023-12-01T17:05:53.791Z,82.50
2023-12-01T17:08:20.929Z,82.60
2023-12-01T17:10:47.838Z,82.50
2023-12-01T17:13:14.786Z,82.50
2023-12-01T17:15:41.887Z,82.50
2023-12-01T17:18:09.021Z,82.40
2023-12-01T17:20:37.030Z,82.40
2023-12-01T17:23:04.081Z,82.40
2023-12-01T17:25:31.222Z,82.50
2023-12-01T17:27:58.150Z,82.30
2023-12-01T17:30:25.170Z,82.40
2023-12-01T17:32:52.184Z,82.60
2023-12-01T17:35:19.256Z,82.40
2023-12-01T17:37:46.342Z,82.40
2023-12-01T17:40:13.364Z,82.40
2023-12-01T17:42:40.391Z,83.00
2023-12-01T17:45:07.916Z,83.10
2023-12-01T17:47:34.972Z,83.00
2023-12-01T17:50:01.956Z,82.70
2023-12-01T17:52:29.584Z,82.90
2023-12-01T17:54:56.527Z,82.80
2023-12-01T17:57:23.499Z,82.60
2023-12-01T17:59:50.520Z,82.60
2023-12-01T18:02:17.579Z,82.50
2023-12-01T18:04:44.675Z,82.50
2023-12-01T18:07:11.816Z,82.40
2023-12-01T18:09:38.846Z,82.50
2023-12-01T18:12:06.183Z,82.40
2023-12-01T18:14:33.338Z,82.40
2023-12-01T18:17:00.586Z,82.30
2023-12-01T18:19:27.612Z,82.40
2023-12-01T18:21:55.431Z,82.40
2023-12-01T18:24:22.587Z,82.40
2023-12-01T18:26:49.566Z,82.40
2023-12-01T18:29:16.551Z,82.40
2023-12-01T18:31:43.614Z,82.40
2023-12-01T18:34:10.857Z,82.50
2023-12-01T18:36:38.062Z,82.40
2023-12-01T18:39:05.221Z,82.50
2023-12-01T18:41:32.984Z,82.60
2023-12-01T18:43:59.943Z,82.50
2023-12-01T18:46:26.942Z,82.60
2023-12-01T18:48:54.080Z,82.60
2023-12-01T18:51:21.337Z,82.60
2023-12-01T18:53:48.354Z,82.50
2023-12-01T18:56:15.332Z,83.10
2023-12-01T18:58:42.292Z,83.20
2023-12-01T19:01:09.455Z,83.00
2023-12-01T19:03:36.687Z,83.20
2023-12-01T19:06:04.137Z,83.20
2023-12-01T19:08:31.128Z,82.80
2023-12-01T19:10:58.610Z,82.80
2023-12-01T19:13:25.929Z,82.70
2023-12-01T19:15:53.075Z,82.80
2023-12-01T19:18:20.196Z,82.80
2023-12-01T19:20:47.322Z,82.70
2023-12-01T19:23:14.327Z,82.90
2023-12-01T19:25:41.357Z,83.00
2023-12-01T19:28:08.298Z,83.00
2023-12-01T19:30:35.305Z,82.90
2023-12-01T19:33:02.475Z,82.90
2023-12-01T19:35:29.652Z,83.00
2023-12-01T19:37:56.827Z,82.90
2023-12-01T19:40:23.842Z,83.00
2023-12-01T19:42:50.809Z,83.00
2023-12-01T19:45:17.760Z,83.00
2023-12-01T19:47:44.738Z,82.90
2023-12-01T19:50:11.724Z,82.90
2023-12-01T19:52:38.756Z,83.10
2023-12-01T19:55:06.019Z,83.10
2023-12-01T19:57:33.051Z,83.00
2023-12-01T20:00:00.404Z,83.10
2023-12-01T20:02:29.585Z,83.10
2023-12-01T20:04:56.838Z,83.00
2023-12-01T20:07:23.865Z,83.10
2023-12-01T20:09:50.903Z,83.10
2023-12-01T20:12:19.120Z,83.10
2023-12-01T20:14:46.127Z,83.10
2023-12-01T20:17:13.117Z,83.10
2023-12-01T20:19:40.681Z,83.10
2023-12-01T20:22:08.154Z,83.00
2023-12-01T20:24:36.568Z,83.00
2023-12-01T20:27:03.806Z,83.10
2023-12-01T20:29:30.742Z,83.20
2023-12-01T20:31:58.815Z,82.90
2023-12-01T20:34:25.764Z,82.90
2023-12-01T20:36:52.791Z,83.00
2023-12-01T20:39:19.768Z,83.00
2023-12-01T20:41:47.536Z,83.10
2023-12-01T20:44:14.612Z,82.90
2023-12-01T20:46:41.700Z,82.90
2023-12-01T20:49:09.078Z,83.10
2023-12-01T20:51:36.037Z,83.10
2023-12-01T20:54:03.045Z,83.10
2023-12-01T20:56:29.964Z,83.30
2023-12-01T20:58:56.990Z,83.60
2023-12-01T21:01:23.968Z,83.40
2023-12-01T21:03:50.906Z,83.60
2023-12-01T21:06:18.153Z,83.30
2023-12-01T21:08:45.534Z,83.20
2023-12-01T21:11:12.553Z,83.10
2023-12-01T21:13:39.548Z,83.10
2023-12-01T21:16:07.058Z,83.00
2023-12-01T21:18:34.236Z,83.10
2023-12-01T21:21:01.236Z,83.10
2023-12-01T21:23:28.242Z,83.00
2023-12-01T21:25:55.141Z,83.00
2023-12-01T21:28:22.097Z,83.10
2023-12-01T21:30:49.067Z,83.00
2023-12-01T21:33:16.097Z,82.90
2023-12-01T21:35:43.224Z,83.10
2023-12-01T21:38:10.212Z,83.00
2023-12-01T21:40:37.198Z,83.00
2023-12-01T21:43:04.155Z,83.00
2023-12-01T21:45:31.383Z,83.00
2023-12-01T21:47:58.440Z,83.00
2023-12-01T21:50:25.574Z,83.00
2023-12-01T21:52:52.730Z,83.00
2023-12-01T21:55:19.694Z,82.90
2023-12-01T21:57:46.773Z,83.00
2023-12-01T22:00:14.538Z,83.00
2023-12-01T22:02:41.604Z,82.70
2023-12-01T22:05:08.753Z,82.90
2023-12-01T22:07:35.848Z,82.70
2023-12-01T22:10:02.976Z,82.70
2023-12-01T22:12:29.989Z,82.70
2023-12-01T22:14:57.114Z,82.60
2023-12-01T22:17:24.566Z,82.70
2023-12-01T22:19:51.513Z,82.60
2023-12-01T22:22:21.718Z,83.10
2023-12-01T22:24:49.507Z,83.20
2023-12-01T22:27:16.693Z,82.70
2023-12-01T22:29:43.870Z,82.60
2023-12-01T22:32:12.856Z,82.60
2023-12-01T22:34:39.950Z,82.60
2023-12-01T22:37:06.942Z,82.50
2023-12-01T22:39:34.061Z,82.40
2023-12-01T22:42:02.134Z,82.40
2023-12-01T22:44:29.135Z,82.40
2023-12-01T22:46:59.346Z,82.40
2023-12-01T22:49:26.887Z,82.40
2023-12-01T22:51:54.445Z,82.40
2023-12-01T22:54:21.458Z,82.60
2023-12-01T22:56:49.758Z,82.40
2023-12-01T22:59:16.721Z,82.40
2023-12-01T23:01:43.745Z,82.40
2023-12-01T23:04:11.065Z,82.40
2023-12-01T23:06:38.206Z,82.50
2023-12-01T23:09:06.050Z,82.40
2023-12-01T23:11:33.480Z,82.40
2023-12-01T23:14:00.581Z,82.30
2023-12-01T23:16:27.714Z,82.30
2023-12-01T23:18:54.809Z,82.50
2023-12-01T23:21:22.030Z,82.80
2023-12-01T23:23:49.057Z,82.80
2023-12-01T23:26:16.137Z,82.70
2023-12-01T23:28:43.238Z,82.30
2023-12-01T23:31:11.212Z,82.40
2023-12-01T23:33:38.522Z,82.20
2023-12-01T23:36:06.411Z,82.20
2023-12-01T23:38:33.892Z,82.30
2023-12-01T23:41:01.068Z,82.30
2023-12-01T23:43:28.013Z,82.30
2023-12-01T23:45:54.910Z,82.20
2023-12-01T23:48:21.971Z,82.20
2023-12-01T23:50:49.005Z,82.20
2023-12-01T23:53:15.952Z,82.10
2023-12-01T23:55:42.923Z,82.20
2023-12-01T23:58:09.968Z,82.10
